ESNU/UME METAR and TAF weather

Enter ICAO airport designator
Station Type Date Time Source
ESNU METAR 2021/01/27 13:50 UTC NOAA

ESNU 271350Z 32010KT 9999 -SN OVC055 M07/M09 Q1004 R14/72//76


Station Type Date Time Source
ESNU Decoded METAR 2021/01/27 13:50 UTC NOAA

Umea Flygplats, Sweden (ESNU) 63-48N 020-17E 14M
Jan 27, 2021 - 08:50 AM EST / 2021.01.27 1350 UTC
Wind: from the NW (320 degrees) at 12 MPH (10 KT):0
Visibility: greater than 7 mile(s):0
Sky conditions: overcast
Weather: light snow
Temperature: 19 F (-7 C)
Windchill: 6 F (-14 C):1
Dew Point: 15 F (-9 C)
Relative Humidity: 85%
Pressure (altimeter): 29.65 in. Hg (1004 hPa)
ob: ESNU 271350Z 32010KT 9999 -SN OVC055 M07/M09 Q1004 R14/72//76
cycle: 14

Station Type Date Time Source
ESNU TAF 2019/10/24 00:55 UTC NOAA

TAF
AMD ESNU 242348Z 2500/2524 16003KT 0200 FG VV002 PROB40 2500/2509 8000 -RA BKN005

Example: see airport list